Time;durP1;ratioP1;P1;durP2;ratioP2;P2;SDS_P1;SDS_P2;PMS_P1;PMS_P2;Temp;Humidity;BMP_temperature;BMP_pressure;BME280_temperature;BME280_humidity;BME280_pressure;Samples;Min_cycle;Max_cycle;Signal;HPM_P1;HPM_P2
2022/01/19 00:01:06;;;;;;;20.95;5.78;;;;;;;;;;5052796;28;20024;-73
2022/01/19 00:03:33;;;;;;;21.40;5.22;;;;;;;;;;5052539;28;20025;-73
2022/01/19 00:06:00;;;;;;;23.30;5.43;;;;;;;;;;5051499;28;20025;-73
2022/01/19 00:08:28;;;;;;;21.75;4.88;;;;;;;;;;5052688;28;20028;-74
2022/01/19 00:10:55;;;;;;;20.45;4.82;;;;;;;;;;5051397;28;20040;-72
2022/01/19 00:13:23;;;;;;;19.77;4.85;;;;;;;;;;5051203;28;20045;-73
2022/01/19 00:15:50;;;;;;;21.23;4.70;;;;;;;;;;5052644;28;20052;-73
2022/01/19 00:18:19;;;;;;;20.20;4.40;;;;;;;;;;5052596;28;20112;-73
2022/01/19 00:20:46;;;;;;;13.63;3.60;;;;;;;;;;5051359;28;20029;-72
2022/01/19 00:23:16;;;;;;;19.55;4.80;;;;;;;;;;5051244;28;20067;-73
2022/01/19 00:25:44;;;;;;;18.42;3.95;;;;;;;;;;5052678;28;20048;-71
2022/01/19 00:28:11;;;;;;;16.38;4.35;;;;;;;;;;5052507;28;20100;-72
2022/01/19 00:30:40;;;;;;;17.23;4.25;;;;;;;;;;5051189;28;20167;-73
2022/01/19 00:33:08;;;;;;;15.25;3.45;;;;;;;;;;5052522;28;20032;-73
2022/01/19 00:35:35;;;;;;;16.40;3.80;;;;;;;;;;5052490;28;20032;-73
2022/01/19 00:38:07;;;;;;;15.95;4.13;;;;;;;;;;5051001;28;20033;-73
2022/01/19 00:40:35;;;;;;;18.33;4.15;;;;;;;;;;5052867;28;20021;-73
2022/01/19 00:43:03;;;;;;;17.42;4.25;;;;;;;;;;5052379;28;20389;-73
2022/01/19 00:45:30;;;;;;;19.45;3.72;;;;;;;;;;5052316;28;20025;-72
2022/01/19 00:47:57;;;;;;;20.63;5.07;;;;;;;;;;5054480;28;20032;-72
2022/01/19 00:50:26;;;;;;;17.48;4.38;;;;;;;;;;5056098;28;20036;-72
2022/01/19 00:52:53;;;;;;;20.65;4.40;;;;;;;;;;5055965;28;20425;-72
2022/01/19 00:55:22;;;;;;;14.65;3.50;;;;;;;;;;5055944;28;20393;-71
2022/01/19 00:57:49;;;;;;;16.80;4.43;;;;;;;;;;5055886;28;20036;-71
2022/01/19 01:00:18;;;;;;;17.90;4.30;;;;;;;;;;5055999;28;20025;-71
2022/01/19 01:02:45;;;;;;;19.33;4.32;;;;;;;;;;5055868;28;20020;-72
2022/01/19 01:05:12;;;;;;;19.60;4.05;;;;;;;;;;5055702;28;20090;-71
2022/01/19 01:07:40;;;;;;;13.50;3.70;;;;;;;;;;5055786;28;20029;-71
2022/01/19 01:10:09;;;;;;;13.98;3.72;;;;;;;;;;5055607;28;20036;-72
2022/01/19 01:12:51;;;;;;;18.40;4.82;;;;;;;;;;5055703;28;20033;-71
2022/01/19 01:15:27;;;;;;;17.15;3.80;;;;;;;;;;5055716;28;20100;-72
2022/01/19 01:20:31;;;;;;;17.45;4.03;;;;;;;;;;5055596;28;20021;-73
2022/01/19 01:22:58;;;;;;;18.80;3.47;;;;;;;;;;5055385;28;20028;-72
2022/01/19 01:25:26;;;;;;;12.85;3.30;;;;;;;;;;5055492;28;20029;-72
2022/01/19 01:27:53;;;;;;;19.80;3.80;;;;;;;;;;5055420;28;20044;-72
2022/01/19 01:30:20;;;;;;;13.50;3.22;;;;;;;;;;5055283;28;20060;-72
2022/01/19 01:32:48;;;;;;;14.50;4.05;;;;;;;;;;5055301;28;20055;-72
2022/01/19 01:35:15;;;;;;;16.38;3.83;;;;;;;;;;5055217;28;20028;-71
2022/01/19 01:37:42;;;;;;;12.02;2.75;;;;;;;;;;5055209;28;20394;-70
2022/01/19 01:40:13;;;;;;;10.45;3.10;;;;;;;;;;5055152;28;20020;-72
2022/01/19 01:42:40;;;;;;;15.50;3.47;;;;;;;;;;5053937;28;20051;-71
2022/01/19 01:45:15;;;;;;;11.45;2.85;;;;;;;;;;5055024;28;20074;-70
2022/01/19 01:47:51;;;;;;;16.85;3.75;;;;;;;;;;5053878;28;20025;-72
2022/01/19 01:55:49;;;;;;;15.50;3.22;;;;;;;;;;5054964;28;20090;-72
2022/01/19 01:58:16;;;;;;;12.00;3.00;;;;;;;;;;5053532;28;20025;-71
2022/01/19 02:00:43;;;;;;;15.93;2.85;;;;;;;;;;5054760;28;20025;-71
2022/01/19 02:03:12;;;;;;;11.20;2.95;;;;;;;;;;5054793;28;20474;-71
2022/01/19 02:05:52;;;;;;;13.50;2.90;;;;;;;;;;5053114;28;20049;-71
2022/01/19 02:08:22;;;;;;;10.27;2.75;;;;;;;;;;5054738;28;20428;-72
2022/01/19 02:22:00;;;;;;;11.05;2.63;;;;;;;;;;5054405;28;20035;-72
2022/01/19 02:24:30;;;;;;;12.80;2.40;;;;;;;;;;5054316;28;20504;-73
2022/01/19 02:27:12;;;;;;;14.45;3.28;;;;;;;;;;5054263;28;20035;-72
2022/01/19 02:40:27;;;;;;;11.75;2.95;;;;;;;;;;5054078;28;20032;-73
2022/01/19 02:50:42;;;;;;;11.55;3.00;;;;;;;;;;5054068;28;20501;-74
2022/01/19 02:53:09;;;;;;;19.42;4.22;;;;;;;;;;5053885;28;20029;-73
2022/01/19 02:55:37;;;;;;;14.73;3.60;;;;;;;;;;5053650;28;20032;-71
2022/01/19 02:58:04;;;;;;;15.40;4.03;;;;;;;;;;5053605;28;20021;-71
2022/01/19 03:08:48;;;;;;;18.55;3.83;;;;;;;;;;5053606;28;20528;-71
2022/01/19 03:11:17;;;;;;;15.25;3.78;;;;;;;;;;5053012;28;20096;-71
2022/01/19 03:13:48;;;;;;;18.00;4.83;;;;;;;;;;5053832;28;20026;-70
2022/01/19 03:16:15;;;;;;;15.27;4.07;;;;;;;;;;5053337;28;20809;-71
2022/01/19 03:18:42;;;;;;;17.80;4.28;;;;;;;;;;5052030;28;20036;-71
2022/01/19 03:21:10;;;;;;;21.42;4.63;;;;;;;;;;5053344;28;20086;-72
2022/01/19 03:23:37;;;;;;;22.27;4.43;;;;;;;;;;5052078;28;20452;-72
2022/01/19 03:26:06;;;;;;;18.48;4.18;;;;;;;;;;5053239;28;20443;-72
2022/01/19 03:28:37;;;;;;;16.58;3.63;;;;;;;;;;5052005;28;20025;-71
2022/01/19 03:31:05;;;;;;;12.20;3.10;;;;;;;;;;5053173;28;20017;-71
2022/01/19 03:33:32;;;;;;;17.63;4.13;;;;;;;;;;5053202;28;20025;-72
2022/01/19 03:35:59;;;;;;;18.23;3.20;;;;;;;;;;5051812;28;20024;-72
2022/01/19 03:38:27;;;;;;;21.65;4.28;;;;;;;;;;5052950;28;20104;-72
2022/01/19 03:40:54;;;;;;;16.02;3.53;;;;;;;;;;5053112;28;20017;-72
2022/01/19 03:43:21;;;;;;;17.40;3.90;;;;;;;;;;5052860;28;20021;-72
2022/01/19 03:45:53;;;;;;;12.48;2.95;;;;;;;;;;5052889;28;20020;-71
2022/01/19 03:51:23;;;;;;;11.57;2.95;;;;;;;;;;5070836;28;20070;-72
2022/01/19 03:53:50;;;;;;;15.07;3.63;;;;;;;;;;5056346;28;20034;-72
2022/01/19 03:56:18;;;;;;;12.43;3.28;;;;;;;;;;5051651;28;20489;-73
2022/01/19 03:58:45;;;;;;;12.10;3.25;;;;;;;;;;5052750;28;20096;-72
2022/01/19 04:01:13;;;;;;;15.30;3.33;;;;;;;;;;5051609;28;20104;-71
2022/01/19 04:06:29;;;;;;;9.80;2.72;;;;;;;;;;5052761;28;20021;-73
2022/01/19 04:08:57;;;;;;;12.90;3.13;;;;;;;;;;5052822;28;20028;-72
2022/01/19 04:11:25;;;;;;;15.60;4.03;;;;;;;;;;5052743;28;20031;-72
2022/01/19 04:14:21;;;;;;;13.20;2.80;;;;;;;;;;5052616;28;20025;-72
2022/01/19 04:16:45;;;;;;;13.15;2.58;;;;;;;;;;5052620;28;20396;-71
2022/01/19 04:19:24;;;;;;;12.48;2.35;;;;;;;;;;5052610;28;20482;-72
2022/01/19 04:21:51;;;;;;;13.48;2.67;;;;;;;;;;5053170;28;20401;-73
2022/01/19 04:24:19;;;;;;;13.85;2.70;;;;;;;;;;5056472;28;20477;-72
2022/01/19 04:26:56;;;;;;;10.30;2.50;;;;;;;;;;5056574;28;20482;-72
2022/01/19 04:29:24;;;;;;;14.98;4.20;;;;;;;;;;5056555;28;20494;-73
2022/01/19 04:31:51;;;;;;;11.80;2.83;;;;;;;;;;5055112;28;20021;-72
2022/01/19 04:34:19;;;;;;;13.82;3.15;;;;;;;;;;5056516;28;20021;-71
2022/01/19 05:07:15;;;;;;;15.98;3.25;;;;;;;;;;5055877;28;20099;-73
2022/01/19 05:15:08;;;;;;;12.20;2.92;;;;;;;;;;5055618;28;20532;-73
2022/01/19 05:17:38;;;;;;;14.00;2.85;;;;;;;;;;5055699;28;20045;-73
2022/01/19 05:20:10;;;;;;;11.65;2.58;;;;;;;;;;5055580;28;20102;-73
2022/01/19 05:22:37;;;;;;;14.63;2.58;;;;;;;;;;5054284;28;20116;-72
2022/01/19 05:25:04;;;;;;;12.90;2.85;;;;;;;;;;5054210;28;20017;-73
2022/01/19 05:27:32;;;;;;;16.75;3.22;;;;;;;;;;5055451;28;20021;-72
2022/01/19 05:29:59;;;;;;;14.95;2.53;;;;;;;;;;5055297;28;20052;-76
2022/01/19 05:32:27;;;;;;;15.20;3.03;;;;;;;;;;5055287;28;20032;-71
2022/01/19 05:34:54;;;;;;;13.60;3.05;;;;;;;;;;5055018;28;20024;-70
2022/01/19 05:37:21;;;;;;;21.20;4.10;;;;;;;;;;5055196;28;20057;-72
2022/01/19 05:39:48;;;;;;;16.02;3.17;;;;;;;;;;5055293;28;20382;-70
2022/01/19 05:42:16;;;;;;;17.83;3.67;;;;;;;;;;5055145;28;20025;-70
2022/01/19 05:44:47;;;;;;;15.32;3.00;;;;;;;;;;5054933;28;20025;-73
2022/01/19 05:47:15;;;;;;;14.80;3.15;;;;;;;;;;5054826;28;20072;-71
2022/01/19 05:49:46;;;;;;;18.00;4.45;;;;;;;;;;5054813;28;20032;-75
2022/01/19 05:52:13;;;;;;;14.57;3.30;;;;;;;;;;5054827;28;20110;-71
2022/01/19 05:54:41;;;;;;;14.63;2.92;;;;;;;;;;5054499;28;20394;-72
2022/01/19 05:57:08;;;;;;;17.70;3.53;;;;;;;;;;5054655;28;20025;-73
2022/01/19 05:59:35;;;;;;;17.60;3.08;;;;;;;;;;5054566;28;20025;-73
2022/01/19 06:02:04;;;;;;;9.82;2.28;;;;;;;;;;5053271;28;20075;-73
2022/01/19 06:04:31;;;;;;;12.07;2.50;;;;;;;;;;5054303;28;20044;-72
2022/01/19 06:07:01;;;;;;;9.70;2.25;;;;;;;;;;5054370;28;20382;-72
2022/01/19 06:09:37;;;;;;;10.98;2.05;;;;;;;;;;5054393;28;20017;-73
2022/01/19 06:12:05;;;;;;;10.43;1.80;;;;;;;;;;5054426;28;20151;-73
2022/01/19 06:14:33;;;;;;;11.82;2.33;;;;;;;;;;5054227;28;20032;-73
2022/01/19 06:17:00;;;;;;;9.05;2.03;;;;;;;;;;5052716;28;20559;-74
2022/01/19 06:19:28;;;;;;;15.45;3.08;;;;;;;;;;5052798;28;20017;-73
2022/01/19 06:21:55;;;;;;;13.60;2.78;;;;;;;;;;5052947;28;20024;-73
2022/01/19 06:24:22;;;;;;;11.63;2.50;;;;;;;;;;5054191;28;20017;-72
2022/01/19 06:26:49;;;;;;;9.73;2.25;;;;;;;;;;5052879;28;20108;-74
2022/01/19 06:29:16;;;;;;;12.93;2.25;;;;;;;;;;5054207;28;20440;-73
2022/01/19 06:31:44;;;;;;;10.88;2.53;;;;;;;;;;5053078;28;20028;-74
2022/01/19 06:34:11;;;;;;;14.32;2.22;;;;;;;;;;5054181;28;20100;-73
2022/01/19 06:36:38;;;;;;;15.15;2.85;;;;;;;;;;5054154;28;20367;-74
2022/01/19 06:39:06;;;;;;;15.00;2.78;;;;;;;;;;5052823;28;20046;-73
2022/01/19 06:41:33;;;;;;;11.95;2.35;;;;;;;;;;5053954;28;20013;-74
2022/01/19 06:44:00;;;;;;;11.00;2.53;;;;;;;;;;5053781;28;20017;-73
2022/01/19 06:46:27;;;;;;;7.97;1.70;;;;;;;;;;5053314;28;20024;-72
2022/01/19 06:48:54;;;;;;;10.23;2.17;;;;;;;;;;5052638;28;20024;-73
2022/01/19 06:51:22;;;;;;;19.25;3.05;;;;;;;;;;5053851;28;20496;-72
2022/01/19 06:53:49;;;;;;;16.38;2.58;;;;;;;;;;5053972;28;20067;-73
2022/01/19 06:56:16;;;;;;;11.52;2.40;;;;;;;;;;5053732;28;20021;-71
2022/01/19 06:58:43;;;;;;;18.90;3.53;;;;;;;;;;5053666;28;20028;-69
2022/01/19 07:01:11;;;;;;;17.83;3.92;;;;;;;;;;5053846;28;20068;-69
2022/01/19 07:03:38;;;;;;;14.10;2.63;;;;;;;;;;5053574;28;20013;-70
2022/01/19 07:06:07;;;;;;;11.57;3.15;;;;;;;;;;5053771;28;20044;-69
2022/01/19 07:08:35;;;;;;;18.38;3.60;;;;;;;;;;5053583;28;20025;-69
2022/01/19 07:11:02;;;;;;;14.95;3.28;;;;;;;;;;5053603;28;20432;-72
2022/01/19 07:13:29;;;;;;;16.40;3.70;;;;;;;;;;5053595;28;20086;-74
2022/01/19 07:15:56;;;;;;;13.75;2.85;;;;;;;;;;5053411;28;20029;-72
2022/01/19 07:18:23;;;;;;;16.20;3.45;;;;;;;;;;5052088;28;20446;-74
2022/01/19 07:20:51;;;;;;;17.27;3.75;;;;;;;;;;5053475;28;20021;-75
2022/01/19 07:23:18;;;;;;;14.73;2.63;;;;;;;;;;5052033;28;20025;-73
2022/01/19 07:25:45;;;;;;;13.80;2.95;;;;;;;;;;5053386;28;20441;-73
2022/01/19 07:28:12;;;;;;;15.68;3.28;;;;;;;;;;5053243;28;20412;-73
2022/01/19 07:30:39;;;;;;;13.32;2.72;;;;;;;;;;5053337;28;20371;-73
2022/01/19 07:33:06;;;;;;;16.05;2.72;;;;;;;;;;5053049;28;20115;-72
2022/01/19 07:35:34;;;;;;;16.88;3.08;;;;;;;;;;5053120;28;20110;-74
2022/01/19 07:38:01;;;;;;;11.32;2.67;;;;;;;;;;5051769;28;20052;-74
2022/01/19 07:40:28;;;;;;;12.95;2.42;;;;;;;;;;5052247;28;20033;-73
2022/01/19 07:42:55;;;;;;;14.35;2.70;;;;;;;;;;5053022;28;20386;-73
2022/01/19 07:45:22;;;;;;;18.17;2.85;;;;;;;;;;5053001;28;20017;-73
2022/01/19 07:47:49;;;;;;;15.75;2.72;;;;;;;;;;5052995;28;20032;-75
2022/01/19 07:50:17;;;;;;;10.65;2.83;;;;;;;;;;5051682;28;20513;-73
2022/01/19 07:52:45;;;;;;;14.40;3.17;;;;;;;;;;5051675;28;20503;-76
2022/01/19 07:55:12;;;;;;;14.45;3.00;;;;;;;;;;5051729;28;20393;-72
2022/01/19 07:57:41;;;;;;;12.45;2.85;;;;;;;;;;5051503;28;20447;-73
2022/01/19 08:00:10;;;;;;;14.52;3.40;;;;;;;;;;5051648;28;20535;-76
2022/01/19 08:02:37;;;;;;;11.02;2.53;;;;;;;;;;5052829;28;20022;-73
2022/01/19 08:05:04;;;;;;;14.18;2.83;;;;;;;;;;5051099;28;20362;-75
2022/01/19 08:07:33;;;;;;;13.02;2.53;;;;;;;;;;5052811;28;20036;-73
2022/01/19 08:10:02;;;;;;;14.88;2.80;;;;;;;;;;5052703;28;20021;-72
2022/01/19 08:12:29;;;;;;;13.43;3.00;;;;;;;;;;5051527;28;20032;-72
2022/01/19 08:14:58;;;;;;;12.90;2.55;;;;;;;;;;5051356;28;20035;-73
2022/01/19 08:17:29;;;;;;;12.57;2.35;;;;;;;;;;5052533;28;20559;-74
2022/01/19 08:19:57;;;;;;;15.25;3.03;;;;;;;;;;5051676;28;20497;-74
2022/01/19 08:22:24;;;;;;;8.07;2.10;;;;;;;;;;5052719;28;20474;-74
2022/01/19 08:24:52;;;;;;;14.73;2.33;;;;;;;;;;5051131;28;20485;-73
2022/01/19 08:27:19;;;;;;;13.30;2.70;;;;;;;;;;5052579;28;20025;-75
2022/01/19 08:29:47;;;;;;;9.98;2.10;;;;;;;;;;5052427;28;20025;-73
2022/01/19 08:32:14;;;;;;;10.35;2.28;;;;;;;;;;5034880;28;20401;-74
2022/01/19 08:34:41;;;;;;;9.85;2.30;;;;;;;;;;5051256;28;20112;-75
2022/01/19 08:37:14;;;;;;;11.93;2.20;;;;;;;;;;5051145;28;20025;-78
2022/01/19 08:39:44;;;;;;;11.00;2.47;;;;;;;;;;5051042;28;20095;-74
2022/01/19 08:42:12;;;;;;;11.63;2.72;;;;;;;;;;5052419;28;20179;-76
2022/01/19 08:44:39;;;;;;;13.85;2.53;;;;;;;;;;5052282;28;20031;-74
2022/01/19 08:47:07;;;;;;;12.63;2.92;;;;;;;;;;5051197;28;20029;-75
2022/01/19 08:49:34;;;;;;;12.57;2.30;;;;;;;;;;5052351;28;20048;-74
2022/01/19 08:52:04;;;;;;;10.90;2.20;;;;;;;;;;5051218;28;20025;-78
2022/01/19 08:54:32;;;;;;;11.82;3.17;;;;;;;;;;5052703;28;20032;-75
2022/01/19 08:57:04;;;;;;;16.95;3.05;;;;;;;;;;5051046;28;20401;-73
2022/01/19 08:59:32;;;;;;;13.27;2.80;;;;;;;;;;5052278;28;20017;-74
2022/01/19 09:01:59;;;;;;;12.38;2.63;;;;;;;;;;5051020;28;20392;-75
2022/01/19 09:04:27;;;;;;;14.68;2.38;;;;;;;;;;5051926;28;20087;-76
2022/01/19 09:06:55;;;;;;;15.50;2.53;;;;;;;;;;5052363;28;20470;-76
2022/01/19 09:09:22;;;;;;;7.80;2.33;;;;;;;;;;5054948;28;20359;-76
2022/01/19 09:11:49;;;;;;;21.25;3.30;;;;;;;;;;5054572;28;20442;-76
2022/01/19 09:14:17;;;;;;;16.52;2.30;;;;;;;;;;5054479;28;20059;-75
2022/01/19 09:16:49;;;;;;;13.63;2.53;;;;;;;;;;5054292;28;20017;-75
2022/01/19 09:19:17;;;;;;;14.85;2.55;;;;;;;;;;5054262;28;20033;-75
2022/01/19 09:21:44;;;;;;;11.57;2.83;;;;;;;;;;5055593;28;20090;-75
2022/01/19 09:24:11;;;;;;;9.75;2.50;;;;;;;;;;5055421;28;20044;-75
2022/01/19 09:26:39;;;;;;;17.75;3.33;;;;;;;;;;5054137;28;20021;-76
2022/01/19 09:29:06;;;;;;;11.68;2.03;;;;;;;;;;5054176;28;20481;-76
2022/01/19 09:31:35;;;;;;;9.85;2.33;;;;;;;;;;5054160;28;20036;-76
2022/01/19 09:34:09;;;;;;;16.30;2.38;;;;;;;;;;5054098;28;20107;-76
2022/01/19 09:36:46;;;;;;;12.05;2.47;;;;;;;;;;5054074;28;20025;-74
2022/01/19 09:39:15;;;;;;;13.18;2.40;;;;;;;;;;5055374;28;20041;-77
2022/01/19 09:41:42;;;;;;;10.48;2.08;;;;;;;;;;5053896;28;20021;-76
2022/01/19 09:44:10;;;;;;;10.75;2.22;;;;;;;;;;5053938;28;20021;-76
2022/01/19 09:46:37;;;;;;;12.57;2.50;;;;;;;;;;5055156;28;20028;-75
2022/01/19 09:49:09;;;;;;;10.88;2.20;;;;;;;;;;5053949;28;20029;-74
2022/01/19 09:51:36;;;;;;;8.55;2.03;;;;;;;;;;5053930;28;20029;-76
2022/01/19 09:54:04;;;;;;;14.68;2.53;;;;;;;;;;5055187;28;20508;-75
2022/01/19 09:56:31;;;;;;;12.48;3.05;;;;;;;;;;5055157;28;20513;-75
2022/01/19 09:58:58;;;;;;;15.75;2.90;;;;;;;;;;5054878;28;20101;-74
2022/01/19 10:01:26;;;;;;;11.80;2.40;;;;;;;;;;5053707;28;20436;-75
2022/01/19 10:03:56;;;;;;;13.45;2.60;;;;;;;;;;5052965;28;20397;-75
2022/01/19 10:06:25;;;;;;;14.35;2.60;;;;;;;;;;5053507;28;20029;-76
2022/01/19 10:08:54;;;;;;;12.02;2.20;;;;;;;;;;5053474;28;20078;-77
2022/01/19 10:17:01;;;;;;;13.07;2.45;;;;;;;;;;5054973;28;20520;-73
2022/01/19 10:19:28;;;;;;;13.80;2.65;;;;;;;;;;5053469;28;20117;-74
2022/01/19 10:22:04;;;;;;;13.35;2.38;;;;;;;;;;5054417;28;20386;-74
2022/01/19 10:24:36;;;;;;;13.85;2.17;;;;;;;;;;5053135;28;20032;-75
2022/01/19 10:27:22;;;;;;;12.63;3.42;;;;;;;;;;5053203;28;20073;-75
2022/01/19 10:29:50;;;;;;;15.35;2.60;;;;;;;;;;5054390;28;20029;-74
2022/01/19 10:32:17;;;;;;;10.93;2.97;;;;;;;;;;5054352;28;20031;-75
2022/01/19 10:34:44;;;;;;;14.70;1.67;;;;;;;;;;5053010;28;20425;-74
2022/01/19 10:37:11;;;;;;;9.70;2.15;;;;;;;;;;5054132;28;20024;-75
2022/01/19 10:39:41;;;;;;;13.73;2.50;;;;;;;;;;5052928;28;20021;-75
2022/01/19 10:42:10;;;;;;;10.20;2.10;;;;;;;;;;5054132;28;20092;-74
2022/01/19 10:44:38;;;;;;;12.52;2.70;;;;;;;;;;5054132;28;20038;-74
2022/01/19 10:47:06;;;;;;;12.38;2.38;;;;;;;;;;5052740;28;20017;-73
2022/01/19 10:49:52;;;;;;;14.05;2.20;;;;;;;;;;5054008;28;20029;-74
2022/01/19 10:52:46;;;;;;;11.18;1.92;;;;;;;;;;5052704;28;20440;-73
2022/01/19 10:55:24;;;;;;;13.52;2.20;;;;;;;;;;5051468;28;20053;-73
2022/01/19 10:57:52;;;;;;;15.27;2.65;;;;;;;;;;5053681;28;20438;-73
2022/01/19 11:00:24;;;;;;;13.80;1.80;;;;;;;;;;5052276;28;20509;-74
2022/01/19 11:02:53;;;;;;;10.15;1.98;;;;;;;;;;5052269;28;20474;-74
2022/01/19 11:05:40;;;;;;;10.45;2.10;;;;;;;;;;5052208;28;20064;-74
2022/01/19 11:08:08;;;;;;;11.13;2.47;;;;;;;;;;5053609;28;20025;-73
2022/01/19 11:10:36;;;;;;;9.93;1.85;;;;;;;;;;5053627;28;20078;-74
2022/01/19 11:13:05;;;;;;;7.03;1.60;;;;;;;;;;5052310;28;20111;-73
2022/01/19 11:15:33;;;;;;;10.27;2.25;;;;;;;;;;5053599;28;20066;-75
2022/01/19 11:18:00;;;;;;;15.20;2.05;;;;;;;;;;5053433;28;20029;-73
2022/01/19 11:20:28;;;;;;;13.77;2.50;;;;;;;;;;5053372;28;20028;-74
2022/01/19 11:23:15;;;;;;;10.27;2.03;;;;;;;;;;5053429;28;20438;-73
2022/01/19 11:25:51;;;;;;;10.32;1.80;;;;;;;;;;5052115;28;20028;-77
2022/01/19 11:28:39;;;;;;;10.55;2.08;;;;;;;;;;5053405;28;20086;-74
2022/01/19 11:31:16;;;;;;;11.07;2.05;;;;;;;;;;5053566;28;20029;-75
2022/01/19 11:33:44;;;;;;;12.48;2.35;;;;;;;;;;5053387;28;20078;-75
2022/01/19 11:36:22;;;;;;;14.13;2.60;;;;;;;;;;5052043;28;20025;-76
2022/01/19 11:38:50;;;;;;;16.17;2.90;;;;;;;;;;5053180;28;20100;-74
2022/01/19 11:41:17;;;;;;;13.25;2.30;;;;;;;;;;5051981;28;20393;-75
2022/01/19 11:43:55;;;;;;;13.35;2.65;;;;;;;;;;5051862;28;20021;-75
2022/01/19 11:46:45;;;;;;;12.30;2.08;;;;;;;;;;5051865;28;20047;-75
2022/01/19 11:49:15;;;;;;;13.52;2.67;;;;;;;;;;5052653;28;20043;-75
2022/01/19 11:51:47;;;;;;;10.85;2.45;;;;;;;;;;5053022;28;20043;-74
2022/01/19 11:54:14;;;;;;;13.40;2.80;;;;;;;;;;5053018;28;20025;-74
2022/01/19 11:57:02;;;;;;;13.52;2.70;;;;;;;;;;5051710;28;20478;-75
2022/01/19 11:59:47;;;;;;;14.85;2.83;;;;;;;;;;5052984;28;20025;-74
2022/01/19 12:02:29;;;;;;;14.23;2.15;;;;;;;;;;5052837;28;20045;-74
2022/01/19 12:04:59;;;;;;;13.07;2.28;;;;;;;;;;5051399;28;20564;-74
2022/01/19 12:07:40;;;;;;;15.68;2.97;;;;;;;;;;5052897;28;20122;-73
2022/01/19 12:10:09;;;;;;;14.15;2.40;;;;;;;;;;5051477;28;20428;-73
2022/01/19 12:12:47;;;;;;;13.88;2.45;;;;;;;;;;5052835;28;20025;-74
2022/01/19 12:15:37;;;;;;;12.45;2.10;;;;;;;;;;5051534;28;20025;-74
2022/01/19 12:18:09;;;;;;;11.27;2.20;;;;;;;;;;5052476;28;20497;-75
2022/01/19 12:20:53;;;;;;;8.43;1.55;;;;;;;;;;5052779;28;20032;-75
2022/01/19 12:23:26;;;;;;;11.93;2.35;;;;;;;;;;5051405;28;20025;-74
2022/01/19 12:25:57;;;;;;;14.25;2.25;;;;;;;;;;5052685;28;20024;-76
2022/01/19 12:28:40;;;;;;;10.02;1.92;;;;;;;;;;5052642;28;20025;-75
2022/01/19 12:31:23;;;;;;;10.88;2.65;;;;;;;;;;5051333;28;20025;-74
2022/01/19 12:34:08;;;;;;;11.15;2.20;;;;;;;;;;5052595;28;20063;-74
2022/01/19 12:36:49;;;;;;;10.13;2.40;;;;;;;;;;5051583;28;20038;-75
2022/01/19 12:39:25;;;;;;;11.90;2.40;;;;;;;;;;5052619;28;20136;-74
2022/01/19 12:42:00;;;;;;;14.52;2.72;;;;;;;;;;5051301;28;20489;-75
2022/01/19 12:44:36;;;;;;;13.82;2.38;;;;;;;;;;5055543;28;20455;-74
2022/01/19 12:47:04;;;;;;;13.52;2.50;;;;;;;;;;5056391;28;20017;-76
2022/01/19 12:49:32;;;;;;;13.35;2.88;;;;;;;;;;5055067;28;20029;-75
2022/01/19 12:52:01;;;;;;;13.95;2.38;;;;;;;;;;5055083;28;20028;-77
2022/01/19 12:54:30;;;;;;;11.45;2.45;;;;;;;;;;5054964;28;20127;-75
2022/01/19 12:57:02;;;;;;;11.77;2.17;;;;;;;;;;5054899;28;20086;-75
2022/01/19 12:59:29;;;;;;;13.38;2.70;;;;;;;;;;5056125;28;20563;-75
2022/01/19 13:01:59;;;;;;;14.43;2.80;;;;;;;;;;5056009;28;20474;-74
2022/01/19 13:04:37;;;;;;;12.27;2.33;;;;;;;;;;5055856;28;20041;-75
2022/01/19 13:07:18;;;;;;;13.43;2.50;;;;;;;;;;5056060;28;20049;-74
2022/01/19 13:10:08;;;;;;;15.52;2.42;;;;;;;;;;5054674;28;20021;-75
2022/01/19 13:13:07;;;;;;;13.85;2.03;;;;;;;;;;5055822;28;20505;-74
2022/01/19 13:15:40;;;;;;;9.27;1.77;;;;;;;;;;5055760;28;20120;-74
2022/01/19 13:18:06;;;;;;;;;;;;;;;;;;5056229;28;20033;-75
2022/01/19 13:20:33;;;;;;;14.10;2.42;;;;;;;;;;5054480;28;19920;-75
2022/01/19 13:23:04;;;;;;;14.35;2.35;;;;;;;;;;5055750;28;20052;-74
2022/01/19 13:25:34;;;;;;;18.85;2.25;;;;;;;;;;5054409;28;20028;-74
2022/01/19 13:28:02;;;;;;;10.73;1.92;;;;;;;;;;5055983;28;20029;-75
2022/01/19 13:30:30;;;;;;;10.02;2.30;;;;;;;;;;5055587;28;20059;-74
2022/01/19 13:32:58;;;;;;;9.85;1.90;;;;;;;;;;5055528;28;20025;-74
2022/01/19 13:35:27;;;;;;;11.98;2.47;;;;;;;;;;5055475;28;20391;-74
2022/01/19 13:37:56;;;;;;;11.27;2.35;;;;;;;;;;5055510;28;20049;-74
2022/01/19 13:40:27;;;;;;;13.25;2.28;;;;;;;;;;5054156;28;20017;-74
2022/01/19 13:43:18;;;;;;;12.13;2.55;;;;;;;;;;5055484;28;20032;-75
2022/01/19 13:50:43;;;;;;;10.63;1.75;;;;;;;;;;5055332;28;20033;-75
2022/01/19 13:53:10;;;;;;;12.07;2.38;;;;;;;;;;5055233;28;20079;-74
2022/01/19 13:55:38;;;;;;;11.40;1.75;;;;;;;;;;5054977;28;20029;-74
2022/01/19 13:58:23;;;;;;;12.27;1.70;;;;;;;;;;5055030;28;20029;-77
2022/01/19 14:00:51;;;;;;;15.60;2.70;;;;;;;;;;5053734;28;20112;-74
2022/01/19 14:03:19;;;;;;;12.50;1.98;;;;;;;;;;5054976;28;20192;-74
2022/01/19 14:05:48;;;;;;;15.30;1.98;;;;;;;;;;5054924;28;20098;-74
2022/01/19 14:08:15;;;;;;;12.50;2.63;;;;;;;;;;5053659;28;20061;-75
2022/01/19 14:10:44;;;;;;;12.13;2.42;;;;;;;;;;5053590;28;20032;-74
2022/01/19 14:13:23;;;;;;;10.57;2.05;;;;;;;;;;5054942;28;20110;-75
2022/01/19 14:15:50;;;;;;;11.18;2.00;;;;;;;;;;5054765;28;20029;-75
2022/01/19 14:18:17;;;;;;;11.85;2.20;;;;;;;;;;5053349;28;20051;-75
2022/01/19 14:20:44;;;;;;;9.80;1.67;;;;;;;;;;5053377;28;20548;-75
2022/01/19 14:23:15;;;;;;;9.77;2.30;;;;;;;;;;5053309;28;20025;-74
2022/01/19 14:25:43;;;;;;;18.60;2.78;;;;;;;;;;5054610;28;20470;-74
2022/01/19 14:28:15;;;;;;;13.68;1.98;;;;;;;;;;5053227;28;20025;-75
2022/01/19 14:30:42;;;;;;;10.57;2.08;;;;;;;;;;5054498;28;20031;-75
2022/01/19 14:33:11;;;;;;;13.85;2.17;;;;;;;;;;5054473;28;20108;-74
2022/01/19 14:35:46;;;;;;;15.25;2.22;;;;;;;;;;5054380;28;20049;-75
2022/01/19 14:38:13;;;;;;;10.90;2.17;;;;;;;;;;5052963;28;20025;-75
2022/01/19 14:40:49;;;;;;;11.38;1.63;;;;;;;;;;5054254;28;20025;-75
2022/01/19 14:43:18;;;;;;;10.77;2.00;;;;;;;;;;5054305;28;20104;-75
2022/01/19 14:45:52;;;;;;;13.73;2.88;;;;;;;;;;5054195;28;20017;-75
2022/01/19 14:48:20;;;;;;;13.27;1.92;;;;;;;;;;5052850;28;20025;-75
2022/01/19 14:50:48;;;;;;;10.45;1.88;;;;;;;;;;5052795;28;20021;-75
2022/01/19 14:53:15;;;;;;;11.98;1.88;;;;;;;;;;5054061;28;20033;-74
2022/01/19 14:55:44;;;;;;;12.25;2.17;;;;;;;;;;5052604;28;20044;-75
2022/01/19 14:58:12;;;;;;;12.10;2.75;;;;;;;;;;5053848;28;20029;-73
2022/01/19 15:00:40;;;;;;;16.98;2.38;;;;;;;;;;5052642;28;20028;-74
2022/01/19 15:03:08;;;;;;;11.50;2.22;;;;;;;;;;5052565;28;20074;-75
2022/01/19 15:05:36;;;;;;;11.95;2.78;;;;;;;;;;5052947;28;20041;-75
2022/01/19 15:08:04;;;;;;;11.07;2.30;;;;;;;;;;5053789;28;20040;-75
2022/01/19 15:10:32;;;;;;;12.93;2.42;;;;;;;;;;5053812;28;20436;-73
2022/01/19 15:13:00;;;;;;;10.50;2.00;;;;;;;;;;5052434;28;20401;-74
2022/01/19 15:15:29;;;;;;;10.02;2.17;;;;;;;;;;5053645;28;20414;-74
2022/01/19 15:17:58;;;;;;;10.93;2.08;;;;;;;;;;5052228;28;20032;-74
2022/01/19 15:20:26;;;;;;;10.80;1.98;;;;;;;;;;5053653;28;20139;-74
2022/01/19 15:22:59;;;;;;;12.02;2.08;;;;;;;;;;5052187;28;20104;-75
2022/01/19 15:25:46;;;;;;;13.88;3.20;;;;;;;;;;5053529;28;20021;-75
2022/01/19 15:28:13;;;;;;;12.57;2.40;;;;;;;;;;5053519;28;20473;-73
2022/01/19 15:30:42;;;;;;;13.93;2.38;;;;;;;;;;5053371;28;20445;-73
2022/01/19 15:33:13;;;;;;;14.23;2.58;;;;;;;;;;5053356;28;20036;-75
2022/01/19 15:35:40;;;;;;;13.50;2.67;;;;;;;;;;5052083;28;20049;-73
2022/01/19 15:38:08;;;;;;;10.10;2.10;;;;;;;;;;5053201;28;20059;-75
2022/01/19 15:40:36;;;;;;;14.50;2.05;;;;;;;;;;5052009;28;20028;-74
2022/01/19 15:43:05;;;;;;;11.85;2.05;;;;;;;;;;5053264;28;20458;-74
2022/01/19 15:45:35;;;;;;;13.65;2.17;;;;;;;;;;5053249;28;20017;-73
2022/01/19 15:48:03;;;;;;;9.15;2.10;;;;;;;;;;5053470;28;20044;-74
2022/01/19 15:50:32;;;;;;;14.48;2.15;;;;;;;;;;5053124;28;20027;-75
2022/01/19 15:53:00;;;;;;;18.75;3.47;;;;;;;;;;5053086;28;20036;-75
2022/01/19 15:55:27;;;;;;;13.88;1.90;;;;;;;;;;5053080;28;20040;-74
2022/01/19 15:57:54;;;;;;;12.50;2.33;;;;;;;;;;5053081;28;20501;-75
2022/01/19 16:00:22;;;;;;;14.32;2.15;;;;;;;;;;5051843;28;20017;-74
2022/01/19 16:02:49;;;;;;;12.00;1.85;;;;;;;;;;5051761;28;20477;-75
2022/01/19 16:05:16;;;;;;;13.05;2.55;;;;;;;;;;5052759;28;20497;-75
2022/01/19 16:07:43;;;;;;;16.13;2.30;;;;;;;;;;5051596;28;20079;-75
2022/01/19 16:10:10;;;;;;;12.60;2.67;;;;;;;;;;5051674;28;20028;-76
2022/01/19 16:12:38;;;;;;;13.35;2.67;;;;;;;;;;5051571;28;20402;-74
2022/01/19 16:15:05;;;;;;;15.52;3.45;;;;;;;;;;5052897;28;20032;-75
2022/01/19 16:17:33;;;;;;;15.02;2.88;;;;;;;;;;5054819;28;20029;-74
2022/01/19 16:20:00;;;;;;;16.33;2.97;;;;;;;;;;5055673;28;20029;-75
2022/01/19 16:27:57;;;;;;;14.05;2.17;;;;;;;;;;5056792;28;20040;-74
2022/01/19 16:30:25;;;;;;;18.15;2.38;;;;;;;;;;5056739;28;20032;-75